createdAt,value
2019-02-15T00:00:17.709Z,63.80
2019-02-15T00:02:46.537Z,63.60
2019-02-15T00:05:15.635Z,61.80
2019-02-15T00:07:44.505Z,60.80
2019-02-15T00:10:13.377Z,60.80
2019-02-15T00:12:42.213Z,60.80
2019-02-15T00:15:11.086Z,60.80
2019-02-15T00:18:11.112Z,59.30
2019-02-15T00:20:46.230Z,59.40
2019-02-15T00:23:15.044Z,58.80
2019-02-15T00:25:43.949Z,58.90
2019-02-15T00:28:12.837Z,59.10
2019-02-15T00:30:41.717Z,59.60
2019-02-15T00:33:10.632Z,59.80
2019-02-15T00:35:39.517Z,60.60
2019-02-15T00:38:08.715Z,58.90
2019-02-15T00:40:37.808Z,59.30
2019-02-15T00:43:06.655Z,59.10
2019-02-15T00:45:42.532Z,59.70
2019-02-15T00:48:15.347Z,58.00
2019-02-15T00:51:06.354Z,58.60
2019-02-15T00:53:49.399Z,58.90
2019-02-15T00:56:25.203Z,58.30
2019-02-15T00:59:07.771Z,57.30
2019-02-15T01:01:55.810Z,57.20
2019-02-15T01:04:43.708Z,57.40
2019-02-15T01:07:22.611Z,57.80
2019-02-15T01:10:04.628Z,57.70
2019-02-15T01:12:39.476Z,59.60
2019-02-15T01:15:08.404Z,60.30
2019-02-15T01:17:37.350Z,59.50
2019-02-15T01:20:06.320Z,59.40
2019-02-15T01:22:35.441Z,59.40
2019-02-15T01:25:05.068Z,59.70
2019-02-15T01:27:46.646Z,58.60
2019-02-15T01:30:33.257Z,58.60
2019-02-15T01:33:21.117Z,58.90
2019-02-15T01:36:07.411Z,57.70
2019-02-15T01:38:47.131Z,58.30
2019-02-15T01:41:30.161Z,58.40
2019-02-15T01:44:04.232Z,58.30
2019-02-15T01:46:44.099Z,58.80
2019-02-15T01:49:13.006Z,59.50
2019-02-15T01:51:41.803Z,59.70
2019-02-15T01:54:10.712Z,58.70
2019-02-15T01:56:39.544Z,58.50
2019-02-15T01:59:08.375Z,57.30
2019-02-15T02:01:37.293Z,56.80
2019-02-15T02:04:06.394Z,56.10
2019-02-15T02:06:35.230Z,55.80
2019-02-15T02:09:04.966Z,55.70
2019-02-15T02:11:33.849Z,54.80
2019-02-15T02:14:03.560Z,53.50
2019-02-15T02:16:32.456Z,51.70
2019-02-15T02:19:01.391Z,51.80
2019-02-15T02:21:30.266Z,52.00
2019-02-15T02:23:59.124Z,51.00
2019-02-15T02:26:28.037Z,51.70
2019-02-15T02:28:56.842Z,53.40
2019-02-15T02:31:25.874Z,53.70
2019-02-15T02:33:55.063Z,54.40
2019-02-15T02:36:51.733Z,53.50
2019-02-15T02:39:20.745Z,53.00
2019-02-15T02:41:49.719Z,52.80
2019-02-15T02:44:18.691Z,51.60
2019-02-15T02:46:47.566Z,51.60
2019-02-15T02:49:16.419Z,51.60
2019-02-15T02:51:45.199Z,51.70
2019-02-15T02:54:14.065Z,51.60
2019-02-15T02:56:42.960Z,52.00
2019-02-15T02:59:11.817Z,52.70
2019-02-15T03:01:40.722Z,53.10
2019-02-15T03:04:09.864Z,53.50
2019-02-15T03:06:38.870Z,54.20
2019-02-15T03:09:09.969Z,53.60
2019-02-15T03:11:38.854Z,55.10
2019-02-15T03:14:11.596Z,55.50
2019-02-15T03:16:38.286Z,56.50
2019-02-15T03:19:07.291Z,56.40
2019-02-15T03:21:36.155Z,56.50
2019-02-15T03:24:05.082Z,57.30
2019-02-15T03:26:33.904Z,57.70
2019-02-15T03:29:02.697Z,60.00
2019-02-15T03:31:31.487Z,61.10
2019-02-15T03:34:00.318Z,62.90
2019-02-15T03:36:46.851Z,63.20
2019-02-15T03:39:22.426Z,64.50
2019-02-15T03:41:51.249Z,62.70
2019-02-15T03:44:22.673Z,62.60
2019-02-15T03:46:50.840Z,61.80
2019-02-15T03:49:19.648Z,62.00
2019-02-15T03:51:48.470Z,62.40
2019-02-15T03:54:17.759Z,62.70
2019-02-15T03:56:46.760Z,62.90
2019-02-15T03:59:15.683Z,64.00
2019-02-15T04:01:44.669Z,64.70
2019-02-15T04:04:13.933Z,66.30
2019-02-15T04:06:42.781Z,66.00
2019-02-15T04:09:11.688Z,66.80
2019-02-15T04:11:40.639Z,68.10
2019-02-15T04:14:09.440Z,68.10
2019-02-15T04:16:38.275Z,67.40
2019-02-15T04:19:07.149Z,67.40
2019-02-15T04:21:35.969Z,66.70
2019-02-15T04:24:05.209Z,66.50
2019-02-15T04:26:34.044Z,66.50
2019-02-15T04:29:02.918Z,67.40
2019-02-15T04:31:31.800Z,67.40
2019-02-15T04:34:00.611Z,66.50
2019-02-15T04:36:29.488Z,66.70
2019-02-15T04:38:58.301Z,65.60
2019-02-15T04:41:27.186Z,65.40
2019-02-15T04:43:56.273Z,65.30
2019-02-15T04:46:25.349Z,65.00
2019-02-15T04:48:54.159Z,65.50
2019-02-15T04:51:23.010Z,64.60
2019-02-15T04:53:51.793Z,65.10
2019-02-15T04:56:20.625Z,66.40
2019-02-15T04:58:49.659Z,66.60
2019-02-15T05:01:18.490Z,67.10
2019-02-15T05:03:47.311Z,68.20
2019-02-15T05:06:16.191Z,68.10
2019-02-15T05:08:45.000Z,68.60
2019-02-15T05:11:14.166Z,69.40
2019-02-15T05:13:42.969Z,69.50
2019-02-15T05:16:11.836Z,68.70
2019-02-15T05:18:40.653Z,69.30
2019-02-15T05:21:09.721Z,69.20
2019-02-15T05:23:38.541Z,69.70
2019-02-15T05:26:07.445Z,70.00
2019-02-15T05:28:36.227Z,70.10
2019-02-15T05:31:05.120Z,69.90
2019-02-15T05:33:35.606Z,70.50
2019-02-15T05:36:05.481Z,70.70
2019-02-15T05:38:34.595Z,70.30
2019-02-15T05:41:03.403Z,70.00
2019-02-15T05:43:32.371Z,70.50
2019-02-15T05:46:01.420Z,71.50
2019-02-15T05:48:30.304Z,71.60
2019-02-15T05:50:59.307Z,71.60
2019-02-15T05:53:28.126Z,71.50
2019-02-15T05:55:56.918Z,70.90
2019-02-15T05:58:25.747Z,71.40
2019-02-15T06:00:54.595Z,71.50
2019-02-15T06:03:23.431Z,70.90
2019-02-15T06:05:52.437Z,70.10
2019-02-15T06:08:21.412Z,71.00
2019-02-15T06:10:50.252Z,72.50
2019-02-15T06:13:19.096Z,71.20
2019-02-15T06:15:49.115Z,71.70
2019-02-15T06:18:18.374Z,71.20
2019-02-15T06:20:47.430Z,71.70
2019-02-15T06:23:16.327Z,71.10
2019-02-15T06:25:45.151Z,72.10
2019-02-15T06:28:14.294Z,69.60
2019-02-15T06:30:43.175Z,70.00
2019-02-15T06:33:11.981Z,70.40
2019-02-15T06:35:40.943Z,71.20
2019-02-15T06:38:09.836Z,70.70
2019-02-15T06:40:38.802Z,71.20
2019-02-15T06:43:07.643Z,72.00
2019-02-15T06:45:36.900Z,72.30
2019-02-15T06:48:06.144Z,72.30
2019-02-15T06:50:34.956Z,73.50
2019-02-15T06:53:03.793Z,73.30
2019-02-15T06:55:32.630Z,73.20
2019-02-15T06:58:01.465Z,72.20
2019-02-15T07:00:49.371Z,72.10
2019-02-15T07:03:29.067Z,70.50
2019-02-15T07:05:58.608Z,69.70
2019-02-15T07:08:27.490Z,71.10
2019-02-15T07:10:56.379Z,69.20
2019-02-15T07:13:25.195Z,69.60
2019-02-15T07:15:54.035Z,68.40
2019-02-15T07:18:23.215Z,68.50
2019-02-15T07:20:52.263Z,68.50
2019-02-15T07:23:21.125Z,67.40
2019-02-15T07:25:50.067Z,66.10
2019-02-15T07:28:18.853Z,64.00
2019-02-15T07:30:47.784Z,64.30
2019-02-15T07:33:16.971Z,63.20
2019-02-15T07:35:45.755Z,63.30
2019-02-15T07:38:15.339Z,61.60
2019-02-15T07:40:44.600Z,62.10
2019-02-15T07:43:13.502Z,61.70
2019-02-15T07:45:43.224Z,61.80
2019-02-15T07:48:12.150Z,59.10
2019-02-15T07:50:41.105Z,59.90
2019-02-15T07:53:10.321Z,59.10
2019-02-15T07:55:39.139Z,57.90
2019-02-15T07:58:08.005Z,58.50
2019-02-15T08:00:37.332Z,57.10
2019-02-15T08:03:06.228Z,56.50
2019-02-15T08:05:35.143Z,57.30
2019-02-15T08:08:04.642Z,54.80
2019-02-15T08:10:33.862Z,55.30
2019-02-15T08:13:03.062Z,55.70
2019-02-15T08:15:36.151Z,55.50
2019-02-15T08:18:02.465Z,54.30
2019-02-15T08:20:31.394Z,55.50
2019-02-15T08:23:00.218Z,54.80
2019-02-15T08:25:29.128Z,53.60
2019-02-15T08:27:57.963Z,52.90
2019-02-15T08:30:26.855Z,52.60
2019-02-15T08:32:55.802Z,52.70
2019-02-15T08:35:24.630Z,51.90
2019-02-15T08:37:53.612Z,51.30
2019-02-15T08:40:22.440Z,50.60
2019-02-15T08:42:51.314Z,50.50
2019-02-15T08:45:20.153Z,49.20
2019-02-15T08:47:49.092Z,48.70
2019-02-15T08:50:17.997Z,48.90
2019-02-15T08:52:46.888Z,49.30
2019-02-15T08:55:15.871Z,48.10
2019-02-15T08:57:44.835Z,47.10
2019-02-15T09:00:13.906Z,47.80
2019-02-15T09:02:43.111Z,46.30
2019-02-15T09:05:12.399Z,46.50
2019-02-15T09:07:41.349Z,45.30
2019-02-15T09:10:11.244Z,45.70
2019-02-15T09:12:40.260Z,44.80
2019-02-15T09:15:14.984Z,44.00
2019-02-15T09:17:43.863Z,43.00
2019-02-15T09:20:13.045Z,43.70
2019-02-15T09:22:42.216Z,43.10
2019-02-15T09:25:11.452Z,41.90
2019-02-15T09:27:47.980Z,42.40
2019-02-15T09:30:16.922Z,41.20
2019-02-15T09:32:45.852Z,40.60
2019-02-15T09:35:14.805Z,38.90
2019-02-15T09:37:44.164Z,38.80
2019-02-15T09:40:13.100Z,38.90
2019-02-15T09:42:42.014Z,38.30
2019-02-15T09:45:11.737Z,37.60
2019-02-15T09:47:40.735Z,37.00
2019-02-15T09:50:10.339Z,36.40
2019-02-15T09:52:40.523Z,36.50
2019-02-15T09:55:09.765Z,36.60
2019-02-15T09:57:39.054Z,36.60
2019-02-15T10:00:08.353Z,35.40
2019-02-15T10:02:37.168Z,35.40
2019-02-15T10:05:07.063Z,36.00
2019-02-15T10:07:35.983Z,35.40
2019-02-15T10:10:05.151Z,35.00
2019-02-15T10:12:34.079Z,33.90
2019-02-15T10:15:03.249Z,33.00
2019-02-15T10:17:32.320Z,32.60
2019-02-15T10:20:01.355Z,33.50
2019-02-15T10:22:30.179Z,33.90
2019-02-15T10:24:59.014Z,32.70
2019-02-15T10:27:28.298Z,32.60
2019-02-15T10:29:57.530Z,30.40
2019-02-15T10:32:26.563Z,29.80
2019-02-15T10:34:55.560Z,29.80
2019-02-15T10:37:24.874Z,29.50
2019-02-15T10:39:53.809Z,28.20
2019-02-15T10:42:22.659Z,28.20
2019-02-15T10:44:51.637Z,28.20
2019-02-15T10:47:25.037Z,28.20
2019-02-15T10:49:51.658Z,27.60
2019-02-15T10:52:20.493Z,27.30
2019-02-15T10:54:49.431Z,27.10
2019-02-15T10:57:18.456Z,27.60
2019-02-15T10:59:47.466Z,26.70
2019-02-15T11:02:16.437Z,26.70
2019-02-15T11:04:45.656Z,26.70
2019-02-15T11:07:14.662Z,26.90
2019-02-15T11:09:43.576Z,27.20
2019-02-15T11:12:12.459Z,26.10
2019-02-15T11:14:41.317Z,25.20
2019-02-15T11:17:10.589Z,25.20
2019-02-15T11:19:39.529Z,25.20
2019-02-15T11:22:09.146Z,25.20
2019-02-15T11:24:37.971Z,25.30
2019-02-15T11:27:06.893Z,25.20
2019-02-15T11:29:35.849Z,25.40
2019-02-15T11:32:05.243Z,25.50
2019-02-15T11:34:34.142Z,25.30
2019-02-15T11:37:03.140Z,24.90
2019-02-15T11:39:31.967Z,25.40
2019-02-15T11:42:00.867Z,25.00
2019-02-15T11:44:30.310Z,24.50
2019-02-15T11:46:59.155Z,25.00
2019-02-15T11:49:28.335Z,24.20
2019-02-15T11:51:57.274Z,24.40
2019-02-15T11:54:26.154Z,24.60
2019-02-15T11:56:55.367Z,24.10
2019-02-15T11:59:24.274Z,24.70
2019-02-15T12:01:53.121Z,23.70
2019-02-15T12:04:22.005Z,23.30
2019-02-15T12:06:50.811Z,23.80
2019-02-15T12:09:20.347Z,23.50
2019-02-15T12:11:49.138Z,23.20
2019-02-15T12:14:19.031Z,23.20
2019-02-15T12:16:47.942Z,22.60
2019-02-15T12:19:16.924Z,21.80
2019-02-15T12:21:45.869Z,21.90
2019-02-15T12:24:14.712Z,22.40
2019-02-15T12:26:43.515Z,22.10
2019-02-15T12:29:12.417Z,21.20
2019-02-15T12:31:41.375Z,21.20
2019-02-15T12:34:10.316Z,21.50
2019-02-15T12:36:39.140Z,21.60
2019-02-15T12:39:09.605Z,21.10
2019-02-15T12:41:40.191Z,20.90
2019-02-15T12:44:09.496Z,20.70
2019-02-15T12:46:38.367Z,20.50
2019-02-15T12:49:07.181Z,21.00
2019-02-15T12:51:36.071Z,20.60
2019-02-15T12:54:05.015Z,20.70
2019-02-15T12:56:33.816Z,20.60
2019-02-15T12:59:02.648Z,20.70
2019-02-15T13:01:31.942Z,20.20
2019-02-15T13:04:01.031Z,19.90
2019-02-15T13:06:30.145Z,19.90
2019-02-15T13:08:59.139Z,19.70
2019-02-15T13:11:28.338Z,19.70
2019-02-15T13:13:57.139Z,19.70
2019-02-15T13:16:26.051Z,19.80
2019-02-15T13:18:56.955Z,19.80
2019-02-15T13:21:25.438Z,19.80
2019-02-15T13:23:54.242Z,19.70
2019-02-15T13:26:24.114Z,19.40
2019-02-15T13:28:53.327Z,19.90
2019-02-15T13:31:23.174Z,19.40
2019-02-15T13:33:52.243Z,19.90
2019-02-15T13:36:21.457Z,19.70
2019-02-15T13:38:50.292Z,19.60
2019-02-15T13:41:19.216Z,19.20
2019-02-15T13:43:48.047Z,19.60
2019-02-15T13:46:17.188Z,19.80
2019-02-15T13:48:46.263Z,20.00
2019-02-15T13:51:15.139Z,20.00
2019-02-15T13:53:43.944Z,20.20
2019-02-15T13:56:12.803Z,19.60
2019-02-15T13:58:41.711Z,19.00
2019-02-15T14:01:10.517Z,18.70
2019-02-15T14:03:39.414Z,18.80
2019-02-15T14:06:08.290Z,18.70
2019-02-15T14:08:37.199Z,18.80
2019-02-15T14:11:06.350Z,18.70
2019-02-15T14:13:35.304Z,18.30
2019-02-15T14:16:04.200Z,18.70
2019-02-15T14:18:33.271Z,18.80
2019-02-15T14:21:02.186Z,18.90
2019-02-15T14:23:31.007Z,18.70
2019-02-15T14:25:59.916Z,18.70
2019-02-15T14:28:28.929Z,18.90
2019-02-15T14:30:58.007Z,19.20
2019-02-15T14:33:26.900Z,18.70
2019-02-15T14:35:55.990Z,18.30
2019-02-15T14:38:24.946Z,18.40
2019-02-15T14:40:54.120Z,18.00
2019-02-15T14:43:23.131Z,18.20
2019-02-15T14:45:52.007Z,17.10
2019-02-15T14:48:21.065Z,16.40
2019-02-15T14:50:49.999Z,16.80
2019-02-15T14:53:19.335Z,17.00
2019-02-15T14:55:48.136Z,16.40
2019-02-15T14:58:17.150Z,15.90
2019-02-15T15:00:45.970Z,16.40
2019-02-15T15:03:14.910Z,16.40
2019-02-15T15:05:44.251Z,16.40
2019-02-15T15:08:13.176Z,15.60
2019-02-15T15:10:41.998Z,16.10
2019-02-15T15:13:10.960Z,16.30
2019-02-15T15:15:41.224Z,16.30
2019-02-15T15:18:13.467Z,16.30
2019-02-15T15:20:41.553Z,16.20
2019-02-15T15:23:10.440Z,16.50
2019-02-15T15:25:39.302Z,16.20
2019-02-15T15:28:08.200Z,15.80
2019-02-15T15:30:37.043Z,16.30
2019-02-15T15:33:05.915Z,16.70
2019-02-15T15:35:34.916Z,17.00
2019-02-15T15:38:03.783Z,17.30
2019-02-15T15:40:32.746Z,17.20
2019-02-15T15:43:01.695Z,17.30
2019-02-15T15:45:30.732Z,16.90
2019-02-15T15:47:59.622Z,16.80
2019-02-15T15:50:28.748Z,17.00
2019-02-15T15:52:58.006Z,17.00
2019-02-15T15:55:26.965Z,17.50
2019-02-15T15:57:55.774Z,17.90
2019-02-15T16:00:24.799Z,17.70
2019-02-15T16:02:53.623Z,17.90
2019-02-15T16:05:22.566Z,18.40
2019-02-15T16:07:51.639Z,18.70
2019-02-15T16:10:20.438Z,19.20
2019-02-15T16:12:49.433Z,19.40
2019-02-15T16:15:18.934Z,19.40
2019-02-15T16:17:48.048Z,19.40
2019-02-15T16:20:17.057Z,19.40
2019-02-15T16:22:46.240Z,19.60
2019-02-15T16:25:15.431Z,19.90
2019-02-15T16:27:44.572Z,20.20
2019-02-15T16:30:13.786Z,20.70
2019-02-15T16:32:42.695Z,20.80
2019-02-15T16:35:11.664Z,21.20
2019-02-15T16:37:40.720Z,21.70
2019-02-15T16:40:11.828Z,21.60
2019-02-15T16:42:41.319Z,22.00
2019-02-15T16:45:11.866Z,22.60
2019-02-15T16:47:40.855Z,22.50
2019-02-15T16:50:10.279Z,22.50
2019-02-15T16:52:39.108Z,22.80
2019-02-15T16:55:12.861Z,22.70
2019-02-15T16:57:38.919Z,23.30
2019-02-15T17:00:08.144Z,23.30
2019-02-15T17:02:37.083Z,23.40
2019-02-15T17:05:06.562Z,23.50
2019-02-15T17:07:35.586Z,23.60
2019-02-15T17:10:04.712Z,23.70
2019-02-15T17:12:34.119Z,24.10
2019-02-15T17:15:03.140Z,24.10
2019-02-15T17:17:32.262Z,24.70
2019-02-15T17:20:01.198Z,24.40
2019-02-15T17:22:30.215Z,24.70
2019-02-15T17:24:59.448Z,24.80
2019-02-15T17:27:28.333Z,25.10
2019-02-15T17:29:57.359Z,25.50
2019-02-15T17:32:26.621Z,25.60
2019-02-15T17:34:55.988Z,25.50
2019-02-15T17:37:25.124Z,25.90
2019-02-15T17:39:54.082Z,26.10
2019-02-15T17:42:28.968Z,26.10
2019-02-15T17:44:58.271Z,26.50
2019-02-15T17:47:27.115Z,26.70
2019-02-15T17:49:55.948Z,26.80
2019-02-15T17:52:24.919Z,26.80
2019-02-15T17:54:53.753Z,27.40
2019-02-15T17:57:23.105Z,27.00
2019-02-15T17:59:52.474Z,27.50
2019-02-15T18:02:21.457Z,27.60
2019-02-15T18:04:50.253Z,28.10
2019-02-15T18:07:19.251Z,28.40
2019-02-15T18:09:48.063Z,27.80
2019-02-15T18:12:17.074Z,28.00
2019-02-15T18:14:45.915Z,28.00
2019-02-15T18:17:14.953Z,28.40
2019-02-15T18:19:47.250Z,28.80
2019-02-15T18:22:14.450Z,28.70
2019-02-15T18:24:43.608Z,28.70
2019-02-15T18:27:12.510Z,28.60
2019-02-15T18:29:41.413Z,28.80
2019-02-15T18:32:11.645Z,28.40
2019-02-15T18:34:40.548Z,28.40
2019-02-15T18:37:09.432Z,28.70
2019-02-15T18:39:38.782Z,29.20
2019-02-15T18:42:07.656Z,29.40
2019-02-15T18:44:36.575Z,29.50
2019-02-15T18:47:05.882Z,29.30
2019-02-15T18:49:34.772Z,29.40
2019-02-15T18:52:03.820Z,29.70
2019-02-15T18:54:32.984Z,29.90
2019-02-15T18:57:01.840Z,30.30
2019-02-15T18:59:31.056Z,31.00
2019-02-15T19:02:00.087Z,31.10
2019-02-15T19:04:29.027Z,31.10
2019-02-15T19:06:57.934Z,31.80
2019-02-15T19:09:27.010Z,31.30
2019-02-15T19:11:55.960Z,31.30
2019-02-15T19:14:25.060Z,31.60
2019-02-15T19:16:54.059Z,32.10
2019-02-15T19:19:28.882Z,32.50
2019-02-15T19:21:54.203Z,32.70
2019-02-15T19:24:23.227Z,32.90
2019-02-15T19:26:52.140Z,33.00
2019-02-15T19:29:21.189Z,33.70
2019-02-15T19:31:49.987Z,34.00
2019-02-15T19:34:18.999Z,34.50
2019-02-15T19:36:47.903Z,34.70
2019-02-15T19:39:16.721Z,34.80
2019-02-15T19:41:45.869Z,34.80
2019-02-15T19:44:14.685Z,34.50
2019-02-15T19:46:43.993Z,34.10
2019-02-15T19:49:13.013Z,34.50
2019-02-15T19:51:41.933Z,35.40
2019-02-15T19:54:11.021Z,34.70
2019-02-15T19:56:40.110Z,34.60
2019-02-15T19:59:09.197Z,34.80
2019-02-15T20:01:38.020Z,35.10
2019-02-15T20:04:06.840Z,36.00
2019-02-15T20:06:35.875Z,36.00
2019-02-15T20:09:06.255Z,36.50
2019-02-15T20:11:35.070Z,36.70
2019-02-15T20:14:04.075Z,36.60
2019-02-15T20:16:33.274Z,36.30
2019-02-15T20:19:02.277Z,36.50
2019-02-15T20:21:31.099Z,36.70
2019-02-15T20:24:00.271Z,36.80
2019-02-15T20:26:29.290Z,37.20
2019-02-15T20:28:58.438Z,37.40
2019-02-15T20:31:27.330Z,37.20
2019-02-15T20:33:56.333Z,37.30
2019-02-15T20:36:25.152Z,37.70
2019-02-15T20:38:53.967Z,38.10
2019-02-15T20:41:22.999Z,38.60
2019-02-15T20:43:51.815Z,38.90
2019-02-15T20:46:21.146Z,38.90
2019-02-15T20:49:03.825Z,39.00
2019-02-15T20:51:21.379Z,39.30
2019-02-15T20:53:50.430Z,39.10
2019-02-15T20:56:19.226Z,39.30
2019-02-15T20:58:48.319Z,39.40
2019-02-15T21:01:17.500Z,39.20
2019-02-15T21:03:46.397Z,39.50
2019-02-15T21:06:15.406Z,38.90
2019-02-15T21:08:44.403Z,39.30
2019-02-15T21:11:13.590Z,40.10
2019-02-15T21:13:42.774Z,39.70
2019-02-15T21:16:12.081Z,40.30
2019-02-15T21:18:41.019Z,40.00
2019-02-15T21:21:10.074Z,40.20
2019-02-15T21:23:38.883Z,39.40
2019-02-15T21:26:07.695Z,40.00
2019-02-15T21:28:37.035Z,40.60
2019-02-15T21:31:05.836Z,41.60
2019-02-15T21:33:34.750Z,40.10
2019-02-15T21:36:03.775Z,40.30
2019-02-15T21:38:32.694Z,40.40
2019-02-15T21:41:01.705Z,40.60
2019-02-15T21:43:30.713Z,40.40
2019-02-15T21:45:59.744Z,40.50
2019-02-15T21:48:28.637Z,40.30
2019-02-15T21:50:57.642Z,41.00
2019-02-15T21:53:26.451Z,41.40
2019-02-15T21:55:55.269Z,40.60
2019-02-15T21:58:24.387Z,40.70
2019-02-15T22:00:53.219Z,40.90
2019-02-15T22:03:22.100Z,40.20
2019-02-15T22:05:50.987Z,40.10
2019-02-15T22:08:19.816Z,40.00
2019-02-15T22:10:48.647Z,40.50
2019-02-15T22:13:17.602Z,40.70
2019-02-15T22:15:46.439Z,41.30
2019-02-15T22:18:15.281Z,41.30
2019-02-15T22:20:44.151Z,41.80
2019-02-15T22:23:13.018Z,42.10
2019-02-15T22:25:41.888Z,42.70
2019-02-15T22:28:10.757Z,42.60
2019-02-15T22:30:39.696Z,43.30
2019-02-15T22:33:08.623Z,43.30
2019-02-15T22:35:37.791Z,44.20
2019-02-15T22:38:07.082Z,44.30
2019-02-15T22:40:37.992Z,44.80
2019-02-15T22:43:13.562Z,45.60
2019-02-15T22:45:42.455Z,45.50
2019-02-15T22:48:11.288Z,45.60
2019-02-15T22:50:40.207Z,46.00
2019-02-15T22:53:09.140Z,45.90
2019-02-15T22:55:38.148Z,46.50
2019-02-15T22:58:07.093Z,46.30
2019-02-15T23:00:47.036Z,46.80
2019-02-15T23:03:17.549Z,47.70
2019-02-15T23:05:46.414Z,48.80
2019-02-15T23:08:15.476Z,49.00
2019-02-15T23:10:44.424Z,49.70
2019-02-15T23:13:13.319Z,50.20
2019-02-15T23:15:42.171Z,51.10
2019-02-15T23:18:11.259Z,51.60
2019-02-15T23:20:45.307Z,51.90
2019-02-15T23:23:11.206Z,52.50
2019-02-15T23:25:40.160Z,53.10
2019-02-15T23:28:09.264Z,52.60
2019-02-15T23:30:38.266Z,53.30
2019-02-15T23:33:07.266Z,53.50
2019-02-15T23:35:36.141Z,54.00
2019-02-15T23:38:05.507Z,54.00
2019-02-15T23:40:34.414Z,54.50
2019-02-15T23:43:03.457Z,54.70
2019-02-15T23:45:32.308Z,55.20
2019-02-15T23:48:02.465Z,55.40
2019-02-15T23:50:31.331Z,56.40
2019-02-15T23:53:00.216Z,56.50
2019-02-15T23:55:48.276Z,56.20
2019-02-15T23:58:17.174Z,56.90
